Time;durP1;ratioP1;P1;durP2;ratioP2;P2;SDS_P1;SDS_P2;PMS_P1;PMS_P2;Temp;Humidity;BMP_temperature;BMP_pressure;BME280_temperature;BME280_humidity;BME280_pressure;Samples;Min_cycle;Max_cycle;Signal;HPM_P1;HPM_P2
2024/01/22 00:01:57;;;;;;;;;;;12.80;66.40;;;;;;6246311;23;19903;-69
2024/01/22 00:04:23;;;;;;;;;;;12.80;66.50;;;;;;6246340;23;19904;-69
2024/01/22 00:06:49;;;;;;;;;;;12.90;66.50;;;;;;6246238;23;19957;-69
2024/01/22 00:09:14;;;;;;;;;;;12.90;66.60;;;;;;6246169;23;19990;-69
2024/01/22 00:11:40;;;;;;;;;;;12.90;66.50;;;;;;6246168;23;19911;-69
2024/01/22 00:14:05;;;;;;;;;;;12.90;66.50;;;;;;6246132;23;19903;-69
2024/01/22 00:16:31;;;;;;;;;;;12.90;66.50;;;;;;6246193;23;19915;-69
2024/01/22 00:18:57;;;;;;;;;;;13.00;66.80;;;;;;6246672;23;19949;-69
2024/01/22 00:21:22;;;;;;;;;;;13.00;66.80;;;;;;6246191;23;19903;-69
2024/01/22 00:23:47;;;;;;;;;;;13.00;66.70;;;;;;6246736;23;19904;-69
2024/01/22 00:26:14;;;;;;;;;;;13.00;66.80;;;;;;6246036;23;19903;-68
2024/01/22 00:28:41;;;;;;;;;;;13.10;66.20;;;;;;6246149;23;19903;-69
2024/01/22 00:31:06;;;;;;;;;;;13.00;66.80;;;;;;6246725;23;19954;-69
2024/01/22 00:33:32;;;;;;;;;;;13.00;66.80;;;;;;6246043;23;19959;-69
2024/01/22 00:35:58;;;;;;;;;;;13.00;66.60;;;;;;6246052;23;19914;-69
2024/01/22 00:38:23;;;;;;;;;;;12.90;66.20;;;;;;6245950;23;19991;-69
2024/01/22 00:40:48;;;;;;;;;;;13.10;66.80;;;;;;6245963;23;19958;-69
2024/01/22 00:43:14;;;;;;;;;;;13.00;66.70;;;;;;6246662;23;19907;-69
2024/01/22 00:45:39;;;;;;;;;;;13.10;66.80;;;;;;6249965;22;19923;-69
2024/01/22 00:48:05;;;;;;;;;;;13.10;66.50;;;;;;6249535;22;19955;-69
2024/01/22 00:50:31;;;;;;;;;;;13.10;65.70;;;;;;6276875;22;20298;-68
2024/01/22 00:52:56;;;;;;;;;;;13.10;67.10;;;;;;6276507;22;20262;-69
2024/01/22 00:55:22;;;;;;;;;;;13.10;66.90;;;;;;6276400;22;19950;-69
2024/01/22 00:57:47;;;;;;;;;;;13.10;67.00;;;;;;6276497;22;19927;-69
2024/01/22 01:00:13;;;;;;;;;;;13.10;66.80;;;;;;6276525;22;19910;-74
2024/01/22 01:02:38;;;;;;;;;;;13.10;65.70;;;;;;6275906;22;20343;-74
2024/01/22 01:05:04;;;;;;;;;;;13.00;67.10;;;;;;6277169;22;20309;-74
2024/01/22 01:07:30;;;;;;;;;;;12.60;65.80;;;;;;6276723;22;19978;-74
2024/01/22 01:09:55;;;;;;;;;;;13.20;67.10;;;;;;6276374;22;20284;-74
2024/01/22 01:12:21;;;;;;;;;;;13.20;67.10;;;;;;6276339;22;19903;-74
2024/01/22 01:14:46;;;;;;;;;;;13.20;67.10;;;;;;6276859;22;20345;-74
2024/01/22 01:17:12;;;;;;;;;;;13.30;67.10;;;;;;6276864;22;20368;-74
2024/01/22 01:19:39;;;;;;;;;;;13.20;67.30;;;;;;6276092;22;19918;-74
2024/01/22 01:22:05;;;;;;;;;;;13.20;67.20;;;;;;6276593;22;19908;-75
2024/01/22 01:24:30;;;;;;;;;;;13.30;67.40;;;;;;6249216;22;19903;-74
2024/01/22 01:26:56;;;;;;;;;;;13.30;67.40;;;;;;6276164;22;19903;-74
2024/01/22 01:29:21;;;;;;;;;;;13.30;67.50;;;;;;6276107;22;20335;-74
2024/01/22 01:31:46;;;;;;;;;;;13.40;67.70;;;;;;6276072;22;20298;-74
2024/01/22 01:34:12;;;;;;;;;;;13.30;67.50;;;;;;6276085;22;20006;-74
2024/01/22 01:36:38;;;;;;;;;;;13.30;67.60;;;;;;6276031;22;19903;-74
2024/01/22 01:39:03;;;;;;;;;;;13.30;67.20;;;;;;6275881;22;19935;-74
2024/01/22 01:41:29;;;;;;;;;;;13.30;67.30;;;;;;6276116;22;19904;-74
2024/01/22 01:43:54;;;;;;;;;;;13.30;67.20;;;;;;6249425;22;19915;-74
2024/01/22 01:46:20;;;;;;;;;;;13.30;67.70;;;;;;6253911;22;19951;-74
2024/01/22 01:48:45;;;;;;;;;;;13.70;68.00;;;;;;6245241;23;19958;-74
2024/01/22 01:51:11;;;;;;;;;;;13.30;67.50;;;;;;6245937;23;19953;-74
2024/01/22 01:53:37;;;;;;;;;;;13.30;67.60;;;;;;6245468;23;20239;-74
2024/01/22 01:56:03;;;;;;;;;;;13.30;67.60;;;;;;6246054;23;19957;-74
2024/01/22 01:58:28;;;;;;;;;;;13.40;66.90;;;;;;6245160;23;20029;-74
2024/01/22 02:00:54;;;;;;;;;;;13.40;67.80;;;;;;6243629;23;20035;-74
2024/01/22 02:03:20;;;;;;;;;;;13.50;68.30;;;;;;6245271;23;19910;-74
2024/01/22 02:05:46;;;;;;;;;;;13.40;68.10;;;;;;6245359;23;20210;-74
2024/01/22 02:08:11;;;;;;;;;;;13.40;67.90;;;;;;6245237;23;19903;-74
2024/01/22 02:10:36;;;;;;;;;;;13.40;67.90;;;;;;6245204;23;20352;-73
2024/01/22 02:13:04;;;;;;;;;;;13.40;68.00;;;;;;6246066;23;19903;-74
2024/01/22 02:15:30;;;;;;;;;;;13.60;67.70;;;;;;6245621;23;19926;-74
2024/01/22 02:18:00;;;;;;;;;;;13.40;67.90;;;;;;6245307;23;20330;-74
2024/01/22 02:20:26;;;;;;;;;;;13.40;63.70;;;;;;6245307;23;19987;-74
2024/01/22 02:22:52;;;;;;;;;;;13.50;67.80;;;;;;6245892;23;19904;-74
2024/01/22 02:25:18;;;;;;;;;;;13.50;68.20;;;;;;6245913;23;19910;-74
2024/01/22 02:27:44;;;;;;;;;;;13.50;68.50;;;;;;6245258;23;19969;-74
2024/01/22 02:30:11;;;;;;;;;;;13.40;68.10;;;;;;6245721;23;19911;-76
2024/01/22 02:32:37;;;;;;;;;;;13.50;67.00;;;;;;6245254;23;19933;-74
2024/01/22 02:35:03;;;;;;;;;;;13.50;67.90;;;;;;6245759;23;19950;-74
2024/01/22 02:37:28;;;;;;;;;;;13.50;67.60;;;;;;6245785;22;20334;-74
2024/01/22 02:39:54;;;;;;;;;;;13.50;68.40;;;;;;6245700;23;19915;-74
2024/01/22 02:42:20;;;;;;;;;;;13.50;68.80;;;;;;6245725;23;19907;-74
2024/01/22 02:44:46;;;;;;;;;;;13.50;68.70;;;;;;6245140;22;19904;-75
2024/01/22 02:47:12;;;;;;;;;;;13.50;69.00;;;;;;6255614;23;19910;-74
2024/01/22 02:49:38;;;;;;;;;;;13.50;69.00;;;;;;6245367;23;19975;-74
2024/01/22 02:52:04;;;;;;;;;;;13.50;69.20;;;;;;6245831;23;19908;-74
2024/01/22 02:54:30;;;;;;;;;;;13.60;69.20;;;;;;6245027;23;19904;-74
2024/01/22 02:56:55;;;;;;;;;;;13.60;69.30;;;;;;6245028;23;20351;-74
2024/01/22 02:59:21;;;;;;;;;;;13.60;69.40;;;;;;6244881;23;19918;-73
2024/01/22 03:01:46;;;;;;;;;;;13.60;69.60;;;;;;6244964;23;19907;-74
2024/01/22 03:04:11;;;;;;;;;;;13.70;69.80;;;;;;6245000;23;20319;-74
2024/01/22 03:06:38;;;;;;;;;;;13.70;69.10;;;;;;6245063;23;19904;-73
2024/01/22 03:09:04;;;;;;;;;;;13.60;69.40;;;;;;6246382;23;19903;-74
2024/01/22 03:11:29;;;;;;;;;;;13.60;69.40;;;;;;6244914;23;19904;-74
2024/01/22 03:13:55;;;;;;;;;;;13.70;69.50;;;;;;6245011;23;19981;-74
2024/01/22 03:16:20;;;;;;;;;;;13.70;69.40;;;;;;6244980;23;19903;-74
2024/01/22 03:18:46;;;;;;;;;;;13.70;69.80;;;;;;6244927;23;19954;-74
2024/01/22 03:21:11;;;;;;;;;;;13.80;69.80;;;;;;6245071;23;20331;-74
2024/01/22 03:23:37;;;;;;;;;;;13.80;69.50;;;;;;6244979;23;19904;-74
2024/01/22 03:26:03;;;;;;;;;;;13.70;69.50;;;;;;6245509;23;20003;-74
2024/01/22 03:28:29;;;;;;;;;;;13.70;69.30;;;;;;6246760;23;19927;-74
2024/01/22 03:30:55;;;;;;;;;;;13.70;69.60;;;;;;6247316;23;19913;-74
2024/01/22 03:33:21;;;;;;;;;;;13.70;69.90;;;;;;6246762;23;19990;-74
2024/01/22 03:35:46;;;;;;;;;;;13.70;69.90;;;;;;6247386;23;20311;-74
2024/01/22 03:38:12;;;;;;;;;;;13.80;69.50;;;;;;6246996;23;19918;-74
2024/01/22 03:40:38;;;;;;;;;;;13.80;69.90;;;;;;6245593;23;20308;-74
2024/01/22 03:43:03;;;;;;;;;;;15.00;70.70;;;;;;6246548;23;19910;-74
2024/01/22 03:45:29;;;;;;;;;;;13.80;69.70;;;;;;6246318;22;19922;-74
2024/01/22 03:47:54;;;;;;;;;;;13.80;69.60;;;;;;6247235;23;19907;-74
2024/01/22 03:50:20;;;;;;;;;;;13.90;69.80;;;;;;6246550;23;20283;-74
2024/01/22 03:52:45;;;;;;;;;;;13.80;70.00;;;;;;6246446;23;19904;-74
2024/01/22 03:55:11;;;;;;;;;;;13.80;70.30;;;;;;6246381;23;19904;-74
2024/01/22 03:57:36;;;;;;;;;;;13.80;70.20;;;;;;6246355;23;19907;-74
2024/01/22 04:00:02;;;;;;;;;;;13.80;70.10;;;;;;6246348;23;19911;-74
2024/01/22 04:02:27;;;;;;;;;;;13.80;69.60;;;;;;6246392;23;19903;-74
2024/01/22 04:04:53;;;;;;;;;;;13.80;70.40;;;;;;6246437;23;19907;-74
2024/01/22 04:07:19;;;;;;;;;;;13.90;70.20;;;;;;6247610;23;19911;-74
2024/01/22 04:09:45;;;;;;;;;;;13.90;70.40;;;;;;6246289;23;19904;-74
2024/01/22 04:12:10;;;;;;;;;;;13.90;70.30;;;;;;6246368;23;19982;-75
2024/01/22 04:14:36;;;;;;;;;;;13.90;70.20;;;;;;6246202;23;19961;-74
2024/01/22 04:17:01;;;;;;;;;;;13.90;70.30;;;;;;6246191;23;19979;-74
2024/01/22 04:19:27;;;;;;;;;;;13.90;70.20;;;;;;6245167;23;20216;-74
2024/01/22 04:21:52;;;;;;;;;;;13.90;70.20;;;;;;6244669;23;20369;-74
2024/01/22 04:24:18;;;;;;;;;;;13.90;70.50;;;;;;6246107;23;19904;-74
2024/01/22 04:26:43;;;;;;;;;;;14.00;70.40;;;;;;6246176;23;19927;-74
2024/01/22 04:29:09;;;;;;;;;;;13.90;70.50;;;;;;6246288;23;19903;-75
2024/01/22 04:31:35;;;;;;;;;;;14.00;70.60;;;;;;6246231;23;20302;-75
2024/01/22 04:34:01;;;;;;;;;;;13.90;70.60;;;;;;6246764;23;20085;-75
2024/01/22 04:36:26;;;;;;;;;;;13.90;70.20;;;;;;6246030;23;19903;-75
2024/01/22 04:38:52;;;;;;;;;;;14.00;70.00;;;;;;6245913;23;19919;-75
2024/01/22 04:41:17;;;;;;;;;;;14.00;70.80;;;;;;6246115;23;20326;-75
2024/01/22 04:43:43;;;;;;;;;;;14.00;70.90;;;;;;6246121;23;19904;-75
2024/01/22 04:46:08;;;;;;;;;;;14.00;70.60;;;;;;6246016;22;19915;-75
2024/01/22 04:48:34;;;;;;;;;;;14.00;70.70;;;;;;6246198;23;19954;-75
2024/01/22 04:50:59;;;;;;;;;;;14.10;70.60;;;;;;6246059;23;19903;-75
2024/01/22 04:53:25;;;;;;;;;;;14.00;71.10;;;;;;6244353;23;19911;-75
2024/01/22 04:55:50;;;;;;;;;;;14.10;71.10;;;;;;6244474;23;20306;-75
2024/01/22 04:58:16;;;;;;;;;;;14.00;71.10;;;;;;6245894;23;19911;-75
2024/01/22 05:03:17;;;;;;;;;;;14.10;70.60;;;;;;6248728;22;19926;-69
2024/01/22 05:05:42;;;;;;;;;;;14.20;71.50;;;;;;6276208;22;19903;-69
2024/01/22 05:08:08;;;;;;;;;;;14.10;71.30;;;;;;6276330;22;19909;-69
2024/01/22 05:10:33;;;;;;;;;;;14.20;71.50;;;;;;6276845;22;19903;-69
2024/01/22 05:12:59;;;;;;;;;;;14.20;72.10;;;;;;6276265;22;19904;-69
2024/01/22 05:15:24;;;;;;;;;;;14.10;71.30;;;;;;6276172;22;19903;-69
2024/01/22 05:17:49;;;;;;;;;;;14.20;71.20;;;;;;6276187;22;19903;-69
2024/01/22 05:20:15;;;;;;;;;;;14.20;71.70;;;;;;6275998;22;19976;-69
2024/01/22 05:22:41;;;;;;;;;;;14.20;71.60;;;;;;6276599;22;20038;-69
2024/01/22 05:25:08;;;;;;;;;;;14.20;71.80;;;;;;6276087;22;20264;-69
2024/01/22 05:27:33;;;;;;;;;;;14.30;71.10;;;;;;6275892;22;19904;-69
2024/01/22 05:29:59;;;;;;;;;;;14.10;71.90;;;;;;6275943;22;19904;-70
2024/01/22 05:32:24;;;;;;;;;;;14.30;71.80;;;;;;6276033;22;20322;-69
2024/01/22 05:34:50;;;;;;;;;;;14.20;71.70;;;;;;6276995;22;19911;-69
2024/01/22 05:37:16;;;;;;;;;;;14.30;71.70;;;;;;6276496;22;19903;-69
2024/01/22 05:39:42;;;;;;;;;;;14.30;71.50;;;;;;6276306;22;19993;-69
2024/01/22 05:42:08;;;;;;;;;;;14.30;71.40;;;;;;6276675;22;19996;-69
2024/01/22 05:44:34;;;;;;;;;;;14.40;71.90;;;;;;6275980;22;19938;-69
2024/01/22 05:47:00;;;;;;;;;;;14.30;71.60;;;;;;6276586;22;19903;-69
2024/01/22 05:49:26;;;;;;;;;;;14.30;71.70;;;;;;6276017;22;19904;-69
2024/01/22 05:51:52;;;;;;;;;;;14.30;71.60;;;;;;6276320;22;20089;-69
2024/01/22 05:54:18;;;;;;;;;;;14.30;71.50;;;;;;6276413;22;19910;-69
2024/01/22 05:56:43;;;;;;;;;;;14.60;71.60;;;;;;6275946;22;19904;-69
2024/01/22 05:59:09;;;;;;;;;;;14.30;71.90;;;;;;6275891;22;19994;-69
2024/01/22 06:01:36;;;;;;;;;;;14.40;71.50;;;;;;6275812;22;19914;-69
2024/01/22 06:04:04;;;;;;;;;;;14.40;71.70;;;;;;6276349;22;20253;-69
2024/01/22 06:06:30;;;;;;;;;;;14.40;71.50;;;;;;6276219;22;19957;-69
2024/01/22 06:08:56;;;;;;;;;;;14.30;71.70;;;;;;6276274;22;19903;-69
2024/01/22 06:11:22;;;;;;;;;;;14.40;72.00;;;;;;6275907;22;19907;-69
2024/01/22 06:13:48;;;;;;;;;;;14.60;72.00;;;;;;6276219;22;19974;-70
2024/01/22 06:16:14;;;;;;;;;;;14.40;72.00;;;;;;6276442;22;19973;-69
2024/01/22 06:18:41;;;;;;;;;;;14.40;71.70;;;;;;6276104;22;19939;-70
2024/01/22 06:21:08;;;;;;;;;;;14.40;71.80;;;;;;6276290;22;19982;-72
2024/01/22 06:23:34;;;;;;;;;;;14.40;71.70;;;;;;6276313;22;20237;-72
2024/01/22 06:26:00;;;;;;;;;;;13.70;71.30;;;;;;6276203;22;19995;-71
2024/01/22 06:28:26;;;;;;;;;;;14.40;71.70;;;;;;6275762;22;20393;-73
2024/01/22 06:30:52;;;;;;;;;;;14.50;71.90;;;;;;6275602;22;19907;-74
2024/01/22 06:33:18;;;;;;;;;;;14.50;71.60;;;;;;6276177;22;19978;-73
2024/01/22 06:35:44;;;;;;;;;;;14.50;71.80;;;;;;6275606;22;19903;-73
2024/01/22 06:38:09;;;;;;;;;;;14.50;71.90;;;;;;6275543;22;19926;-72
2024/01/22 06:40:35;;;;;;;;;;;14.50;71.80;;;;;;6275589;22;20227;-74
2024/01/22 06:43:00;;;;;;;;;;;14.30;71.60;;;;;;6276307;22;19966;-72
2024/01/22 06:45:26;;;;;;;;;;;14.50;71.70;;;;;;6275619;22;19903;-70
2024/01/22 06:47:52;;;;;;;;;;;14.50;71.60;;;;;;6275566;22;20033;-70
2024/01/22 06:50:18;;;;;;;;;;;14.50;71.60;;;;;;6276190;22;19909;-70
2024/01/22 06:52:46;;;;;;;;;;;14.60;71.80;;;;;;6276136;22;19986;-70
2024/01/22 06:55:12;;;;;;;;;;;14.60;67.60;;;;;;6275780;22;19903;-71
2024/01/22 06:57:39;;;;;;;;;;;14.50;71.30;;;;;;6276237;22;19904;-70
2024/01/22 07:00:07;;;;;;;;;;;14.60;71.20;;;;;;6276128;22;19946;-70
2024/01/22 07:02:38;;;;;;;;;;;14.60;71.20;;;;;;6277481;22;19903;-71
2024/01/22 07:05:05;;;;;;;;;;;14.60;71.70;;;;;;6288024;22;19957;-70
2024/01/22 07:07:32;;;;;;;;;;;14.60;70.80;;;;;;6277757;22;19922;-70
2024/01/22 07:09:58;;;;;;;;;;;14.70;71.80;;;;;;6277665;22;19982;-70
2024/01/22 07:12:24;;;;;;;;;;;14.60;71.60;;;;;;6278149;22;19910;-70
2024/01/22 07:14:50;;;;;;;;;;;14.60;71.40;;;;;;6277614;22;20433;-70
2024/01/22 07:17:17;;;;;;;;;;;14.60;71.30;;;;;;6277625;22;19903;-70
2024/01/22 07:19:43;;;;;;;;;;;14.60;71.50;;;;;;6277517;22;19911;-70
2024/01/22 07:22:09;;;;;;;;;;;14.60;71.40;;;;;;6251046;22;20324;-70
2024/01/22 07:24:35;;;;;;;;;;;14.70;71.50;;;;;;6277936;22;19949;-70
2024/01/22 07:27:01;;;;;;;;;;;14.70;71.50;;;;;;6277698;22;19918;-70
2024/01/22 07:29:27;;;;;;;;;;;14.60;71.00;;;;;;6278074;22;20380;-71
2024/01/22 07:31:53;;;;;;;;;;;14.70;71.00;;;;;;6277872;22;20222;-70
2024/01/22 07:34:20;;;;;;;;;;;14.70;71.30;;;;;;6277331;22;20224;-71
2024/01/22 07:36:46;;;;;;;;;;;14.60;71.20;;;;;;6277367;22;19904;-71
2024/01/22 07:39:12;;;;;;;;;;;14.60;70.90;;;;;;6277635;22;19997;-70
2024/01/22 07:41:38;;;;;;;;;;;14.70;70.70;;;;;;6277352;22;19903;-71
2024/01/22 07:44:04;;;;;;;;;;;14.60;70.80;;;;;;6277553;22;19903;-70
2024/01/22 07:46:31;;;;;;;;;;;14.70;71.10;;;;;;6277623;22;19903;-70
2024/01/22 07:48:56;;;;;;;;;;;14.70;71.00;;;;;;6277303;22;20380;-71
2024/01/22 07:51:23;;;;;;;;;;;14.70;70.90;;;;;;6277151;22;19903;-71
2024/01/22 07:53:49;;;;;;;;;;;14.70;70.50;;;;;;6277257;22;19904;-71
2024/01/22 07:56:15;;;;;;;;;;;14.70;71.30;;;;;;6277395;22;19911;-71
2024/01/22 07:58:41;;;;;;;;;;;14.70;71.00;;;;;;6277253;22;19911;-71
2024/01/22 08:01:06;;;;;;;;;;;14.80;70.70;;;;;;6276591;22;19910;-71
2024/01/22 08:03:32;;;;;;;;;;;14.70;71.10;;;;;;6276979;22;19919;-70
2024/01/22 08:06:00;;;;;;;;;;;14.70;71.30;;;;;;6276580;22;20349;-70
2024/01/22 08:08:27;;;;;;;;;;;14.70;68.70;;;;;;6276650;22;19968;-70
2024/01/22 08:10:52;;;;;;;;;;;14.70;71.20;;;;;;6276846;22;19957;-69
2024/01/22 08:13:18;;;;;;;;;;;14.70;71.00;;;;;;6276309;22;20246;-71
2024/01/22 08:15:44;;;;;;;;;;;14.80;71.40;;;;;;6277278;22;19903;-71
2024/01/22 08:18:10;;;;;;;;;;;14.60;71.00;;;;;;6277090;22;20214;-71
2024/01/22 08:20:36;;;;;;;;;;;14.70;71.30;;;;;;6276777;22;19907;-71
2024/01/22 08:23:02;;;;;;;;;;;14.70;71.30;;;;;;6276725;22;19915;-71
2024/01/22 08:25:31;;;;;;;;;;;14.70;70.70;;;;;;6277518;22;19934;-71
2024/01/22 08:28:00;;;;;;;;;;;16.10;68.00;;;;;;6277223;22;20285;-71
2024/01/22 08:30:43;;;;;;;;;;;14.80;71.20;;;;;;6274273;22;19905;-71
2024/01/22 08:33:09;;;;;;;;;;;14.70;71.00;;;;;;6277126;22;19910;-71
2024/01/22 08:35:34;;;;;;;;;;;14.70;71.00;;;;;;6277195;22;19925;-71
2024/01/22 08:38:00;;;;;;;;;;;14.80;71.10;;;;;;6277113;22;19903;-71
2024/01/22 08:40:27;;;;;;;;;;;14.70;70.80;;;;;;6276975;22;20253;-71
2024/01/22 08:42:54;;;;;;;;;;;14.80;70.60;;;;;;6276699;22;19903;-71
2024/01/22 08:45:21;;;;;;;;;;;14.70;70.90;;;;;;6276558;22;20326;-71
2024/01/22 08:47:48;;;;;;;;;;;14.80;71.40;;;;;;6276965;22;19975;-72
2024/01/22 08:50:18;;;;;;;;;;;14.70;71.40;;;;;;6276452;22;19934;-71
2024/01/22 08:52:45;;;;;;;;;;;14.70;70.80;;;;;;6286985;22;19954;-73
2024/01/22 08:55:11;;;;;;;;;;;14.90;71.30;;;;;;6277272;22;19922;-72
2024/01/22 08:57:37;;;;;;;;;;;14.70;71.40;;;;;;6276222;22;19977;-72
2024/01/22 09:00:10;;;;;;;;;;;14.70;71.40;;;;;;6276198;22;19965;-72
2024/01/22 09:02:39;;;;;;;;;;;14.80;71.00;;;;;;6279937;22;19946;-72
2024/01/22 09:05:09;;;;;;;;;;;14.80;71.10;;;;;;6276383;22;19927;-72
2024/01/22 09:07:35;;;;;;;;;;;14.80;67.30;;;;;;6276212;22;19911;-71
2024/01/22 09:10:02;;;;;;;;;;;14.80;71.10;;;;;;6276107;22;19972;-71
2024/01/22 09:12:29;;;;;;;;;;;14.70;70.90;;;;;;6276598;22;19938;-72
2024/01/22 09:14:55;;;;;;;;;;;14.70;70.80;;;;;;6276713;22;20262;-72
2024/01/22 09:17:21;;;;;;;;;;;14.80;71.10;;;;;;6276763;22;19903;-71
2024/01/22 09:19:47;;;;;;;;;;;14.80;70.90;;;;;;6276637;22;20332;-71
2024/01/22 09:22:12;;;;;;;;;;;14.70;70.90;;;;;;6276062;22;20297;-72
2024/01/22 09:24:38;;;;;;;;;;;14.70;70.70;;;;;;6276214;22;19903;-71
2024/01/22 09:27:03;;;;;;;;;;;14.70;70.90;;;;;;6276517;22;19904;-70
2024/01/22 09:29:29;;;;;;;;;;;14.80;70.60;;;;;;6276094;22;19930;-70
2024/01/22 09:31:54;;;;;;;;;;;14.70;70.80;;;;;;6275941;22;20276;-71
2024/01/22 09:34:20;;;;;;;;;;;14.70;70.60;;;;;;6275425;22;19903;-71
2024/01/22 09:36:46;;;;;;;;;;;14.70;70.70;;;;;;6276531;22;19911;-70
2024/01/22 09:39:12;;;;;;;;;;;14.80;70.60;;;;;;6275986;22;19915;-71
2024/01/22 09:41:37;;;;;;;;;;;14.70;70.20;;;;;;6275861;22;19939;-70
2024/01/22 09:44:03;;;;;;;;;;;14.70;70.50;;;;;;6275851;22;19903;-70
2024/01/22 09:46:29;;;;;;;;;;;14.70;70.20;;;;;;6275876;22;20266;-70
2024/01/22 09:48:55;;;;;;;;;;;14.70;70.10;;;;;;6276474;22;19910;-70
2024/01/22 09:51:20;;;;;;;;;;;14.70;70.40;;;;;;6276358;22;20212;-70
2024/01/22 09:53:47;;;;;;;;;;;14.70;70.50;;;;;;6275738;22;19903;-70
2024/01/22 09:56:16;;;;;;;;;;;14.70;70.50;;;;;;6276001;22;19930;-70
2024/01/22 09:58:43;;;;;;;;;;;14.70;70.20;;;;;;6275077;22;19950;-70
2024/01/22 10:01:10;;;;;;;;;;;14.70;69.70;;;;;;6275692;22;19926;-70
2024/01/22 10:03:36;;;;;;;;;;;14.70;70.30;;;;;;6275878;22;19925;-70
2024/01/22 10:06:01;;;;;;;;;;;14.70;70.20;;;;;;6275735;22;19907;-70
2024/01/22 10:08:28;;;;;;;;;;;14.70;70.20;;;;;;6276265;22;19990;-70
2024/01/22 10:10:53;;;;;;;;;;;14.70;70.10;;;;;;6275891;22;19910;-70
2024/01/22 10:13:19;;;;;;;;;;;14.70;70.00;;;;;;6275631;22;20234;-70
2024/01/22 10:15:44;;;;;;;;;;;14.70;70.10;;;;;;6275481;22;19910;-70
2024/01/22 10:18:12;;;;;;;;;;;14.70;69.90;;;;;;6275811;22;20337;-70
2024/01/22 10:20:38;;;;;;;;;;;14.70;69.60;;;;;;6276602;22;19907;-70
2024/01/22 10:23:04;;;;;;;;;;;14.60;70.00;;;;;;6275768;22;19910;-70
2024/01/22 10:25:30;;;;;;;;;;;14.60;69.90;;;;;;6275627;22;19935;-70
2024/01/22 10:28:16;;;;;;;;;;;14.60;69.60;;;;;;6275446;22;19903;-70
2024/01/22 10:30:44;;;;;;;;;;;14.60;65.80;;;;;;6274826;22;19912;-70
2024/01/22 10:33:16;;;;;;;;;;;14.60;70.20;;;;;;6275265;22;19903;-70
2024/01/22 10:35:42;;;;;;;;;;;14.60;65.70;;;;;;6276793;22;20242;-72
2024/01/22 10:38:09;;;;;;;;;;;14.70;69.80;;;;;;6278239;22;19927;-71
2024/01/22 10:40:34;;;;;;;;;;;14.80;69.80;;;;;;6277765;22;19911;-71
2024/01/22 10:43:16;;;;;;;;;;;14.60;69.60;;;;;;6277576;22;20070;-71
2024/01/22 10:45:44;;;;;;;;;;;14.70;69.50;;;;;;6277617;22;19953;-71
2024/01/22 10:48:09;;;;;;;;;;;14.70;69.50;;;;;;6278177;22;20026;-71
2024/01/22 10:50:36;;;;;;;;;;;14.80;68.80;;;;;;6277359;22;19926;-70
2024/01/22 10:53:01;;;;;;;;;;;14.80;68.90;;;;;;6277491;22;20117;-71
2024/01/22 10:55:27;;;;;;;;;;;14.80;69.10;;;;;;6277429;22;19946;-70
2024/01/22 10:57:55;;;;;;;;;;;14.80;68.80;;;;;;6277380;22;19904;-71
2024/01/22 11:00:20;;;;;;;;;;;14.90;68.60;;;;;;6277349;22;19915;-71
2024/01/22 11:02:48;;;;;;;;;;;14.90;68.40;;;;;;6277480;22;19907;-71
2024/01/22 11:05:15;;;;;;;;;;;15.10;68.30;;;;;;6277889;22;19903;-71
2024/01/22 11:07:40;;;;;;;;;;;14.90;67.90;;;;;;6277346;22;19954;-71
2024/01/22 11:10:08;;;;;;;;;;;15.00;68.10;;;;;;6277359;22;20247;-71
2024/01/22 11:12:39;;;;;;;;;;;15.10;67.70;;;;;;6277402;22;19903;-71
2024/01/22 11:15:06;;;;;;;;;;;15.10;68.10;;;;;;6287371;22;19903;-71
2024/01/22 11:17:31;;;;;;;;;;;15.10;67.10;;;;;;6278151;22;19907;-71
2024/01/22 11:20:16;;;;;;;;;;;15.20;68.00;;;;;;6277143;22;19943;-71
2024/01/22 11:22:41;;;;;;;;;;;15.20;63.80;;;;;;6277307;22;19914;-70
2024/01/22 11:25:13;;;;;;;;;;;15.30;68.20;;;;;;6249968;22;19986;-71
2024/01/22 11:27:40;;;;;;;;;;;15.50;67.70;;;;;;6287463;22;19978;-71
2024/01/22 11:30:32;;;;;;;;;;;15.30;67.80;;;;;;6277545;22;20018;-71
2024/01/22 11:32:58;;;;;;;;;;;15.40;63.60;;;;;;6270441;22;19967;-71
2024/01/22 11:35:34;;;;;;;;;;;15.50;67.10;;;;;;6277223;22;19903;-70
2024/01/22 11:38:04;;;;;;;;;;;15.40;63.50;;;;;;6277521;22;19903;-70
2024/01/22 11:40:52;;;;;;;;;;;15.50;66.50;;;;;;6277414;22;19986;-71
2024/01/22 11:43:19;;;;;;;;;;;15.50;67.40;;;;;;6287373;22;19903;-71
2024/01/22 11:45:45;;;;;;;;;;;15.50;67.10;;;;;;6277541;22;20007;-71
2024/01/22 11:48:15;;;;;;;;;;;15.80;67.10;;;;;;6276480;22;19903;-71
2024/01/22 11:50:41;;;;;;;;;;;15.70;63.20;;;;;;6277166;22;19911;-70
2024/01/22 11:53:07;;;;;;;;;;;15.70;66.80;;;;;;6277093;22;19961;-72
2024/01/22 11:55:33;;;;;;;;;;;15.70;66.60;;;;;;6277182;22;19938;-71
2024/01/22 11:57:59;;;;;;;;;;;15.70;67.00;;;;;;6277155;22;19911;-71
2024/01/22 12:00:25;;;;;;;;;;;15.80;67.20;;;;;;6277273;22;19918;-71
2024/01/22 12:02:55;;;;;;;;;;;15.80;66.70;;;;;;6277091;22;19915;-71
2024/01/22 12:05:21;;;;;;;;;;;16.00;67.80;;;;;;6277110;22;19908;-71
2024/01/22 12:07:48;;;;;;;;;;;15.70;67.30;;;;;;6277028;22;20242;-70
2024/01/22 12:10:21;;;;;;;;;;;15.80;67.50;;;;;;6277095;22;20285;-70
2024/01/22 12:12:48;;;;;;;;;;;15.40;63.10;;;;;;6277275;22;19903;-70
2024/01/22 12:15:14;;;;;;;;;;;15.80;67.40;;;;;;6277715;22;20253;-72
2024/01/22 12:17:42;;;;;;;;;;;16.00;66.80;;;;;;6276918;22;19922;-70
2024/01/22 12:20:09;;;;;;;;;;;15.90;66.50;;;;;;6277140;22;20215;-69
2024/01/22 12:22:34;;;;;;;;;;;16.00;65.40;;;;;;6277154;22;19930;-70
2024/01/22 12:25:07;;;;;;;;;;;16.10;66.30;;;;;;6276819;22;19903;-69
2024/01/22 12:27:33;;;;;;;;;;;16.10;62.40;;;;;;6276910;22;19956;-73
2024/01/22 12:30:06;;;;;;;;;;;16.10;65.90;;;;;;6276658;22;19934;-73
2024/01/22 12:32:37;;;;;;;;;;;16.20;62.30;;;;;;6277258;22;20234;-72
2024/01/22 12:35:03;;;;;;;;;;;16.30;62.10;;;;;;6276449;22;19910;-72
2024/01/22 12:37:32;;;;;;;;;;;16.20;65.40;;;;;;6277073;22;20237;-72
2024/01/22 12:40:04;;;;;;;;;;;16.30;66.20;;;;;;6286635;22;19915;-72
2024/01/22 12:42:29;;;;;;;;;;;16.30;61.90;;;;;;6277035;22;19911;-72
2024/01/22 12:44:56;;;;;;;;;;;16.40;66.20;;;;;;6276518;22;19903;-72
2024/01/22 12:47:22;;;;;;;;;;;16.40;66.00;;;;;;6276981;22;19907;-72
2024/01/22 12:49:47;;;;;;;;;;;16.40;65.90;;;;;;6276389;22;20267;-72
2024/01/22 12:52:13;;;;;;;;;;;16.40;65.70;;;;;;6276382;22;19903;-72
2024/01/22 12:54:38;;;;;;;;;;;16.50;65.10;;;;;;6276462;22;19910;-72
2024/01/22 12:57:04;;;;;;;;;;;16.70;65.70;;;;;;6276389;22;19983;-72
2024/01/22 12:59:29;;;;;;;;;;;16.60;65.00;;;;;;6276836;22;19931;-72
2024/01/22 13:01:55;;;;;;;;;;;16.60;65.00;;;;;;6276184;22;19942;-72
2024/01/22 13:04:20;;;;;;;;;;;16.50;65.40;;;;;;6276003;22;19922;-72
2024/01/22 13:06:47;;;;;;;;;;;16.60;65.20;;;;;;6276314;22;19911;-72
2024/01/22 13:09:13;;;;;;;;;;;16.60;65.00;;;;;;6276744;22;20219;-72
2024/01/22 13:11:39;;;;;;;;;;;16.60;65.30;;;;;;6276920;22;19949;-72
2024/01/22 13:14:05;;;;;;;;;;;16.50;64.80;;;;;;6276403;22;19904;-73
2024/01/22 13:16:31;;;;;;;;;;;16.60;64.90;;;;;;6276678;22;20076;-72
2024/01/22 13:18:57;;;;;;;;;;;16.60;65.00;;;;;;6276617;22;20223;-72
2024/01/22 13:21:22;;;;;;;;;;;16.70;64.60;;;;;;6276108;22;19983;-72
2024/01/22 13:23:48;;;;;;;;;;;17.00;64.70;;;;;;6276851;22;19934;-72
2024/01/22 13:26:14;;;;;;;;;;;16.80;64.80;;;;;;6276335;22;19934;-72
2024/01/22 13:28:40;;;;;;;;;;;16.70;64.50;;;;;;6275933;22;19907;-72
2024/01/22 13:31:05;;;;;;;;;;;16.70;65.00;;;;;;6276201;22;20242;-72
2024/01/22 13:33:31;;;;;;;;;;;16.70;64.50;;;;;;6276483;22;19907;-72
2024/01/22 13:35:57;;;;;;;;;;;16.70;64.50;;;;;;6276668;22;19911;-72
2024/01/22 13:38:22;;;;;;;;;;;16.80;64.60;;;;;;6275989;22;19903;-72
2024/01/22 13:40:48;;;;;;;;;;;16.80;64.60;;;;;;6276479;22;19903;-72
2024/01/22 13:43:13;;;;;;;;;;;16.80;64.40;;;;;;6275919;22;20508;-72
2024/01/22 13:45:39;;;;;;;;;;;16.70;64.40;;;;;;6276317;22;19908;-72
2024/01/22 13:48:06;;;;;;;;;;;16.90;64.70;;;;;;6275997;22;19911;-72
2024/01/22 13:50:31;;;;;;;;;;;16.70;62.50;;;;;;6276285;22;19907;-72
2024/01/22 13:52:58;;;;;;;;;;;16.70;64.50;;;;;;6276498;22;19926;-72
2024/01/22 13:55:25;;;;;;;;;;;16.80;64.50;;;;;;6275895;22;20349;-73
2024/01/22 13:57:51;;;;;;;;;;;16.60;64.40;;;;;;6275869;22;20314;-73
2024/01/22 14:00:18;;;;;;;;;;;17.60;64.80;;;;;;6276262;22;19911;-72
2024/01/22 14:02:43;;;;;;;;;;;16.80;64.30;;;;;;6275810;22;19938;-73
2024/01/22 14:05:10;;;;;;;;;;;16.70;64.70;;;;;;6276261;22;19903;-72
2024/01/22 14:07:36;;;;;;;;;;;16.70;64.50;;;;;;6276677;22;19903;-72
2024/01/22 14:10:02;;;;;;;;;;;16.80;64.30;;;;;;6275615;22;19909;-72
2024/01/22 14:12:28;;;;;;;;;;;16.80;63.80;;;;;;6276309;22;19909;-72
2024/01/22 14:14:54;;;;;;;;;;;16.70;64.40;;;;;;6275597;22;19986;-72